sensor_id;sensor_type;location;lat;lon;timestamp;P1;durP1;ratioP1;P2;durP2;ratioP2
27895;SDS011;15241;48.374;10.876;2023-04-25T00:00:13;4.15;;;1.92;;
27895;SDS011;15241;48.374;10.876;2023-04-25T00:05:12;3.40;;;2.83;;
27895;SDS011;15241;48.374;10.876;2023-04-25T00:10:12;3.75;;;2.77;;
27895;SDS011;15241;48.374;10.876;2023-04-25T00:15:11;2.20;;;2.00;;
27895;SDS011;15241;48.374;10.876;2023-04-25T00:20:11;3.50;;;2.22;;
27895;SDS011;15241;48.374;10.876;2023-04-25T00:25:10;4.78;;;2.30;;
27895;SDS011;15241;48.374;10.876;2023-04-25T00:30:11;4.80;;;2.08;;
27895;SDS011;15241;48.374;10.876;2023-04-25T00:57:27;5.37;;;2.22;;
27895;SDS011;15241;48.374;10.876;2023-04-25T01:07:44;3.08;;;2.20;;
27895;SDS011;15241;48.374;10.876;2023-04-25T01:12:43;5.47;;;2.55;;
27895;SDS011;15241;48.374;10.876;2023-04-25T01:17:42;3.60;;;2.47;;
27895;SDS011;15241;48.374;10.876;2023-04-25T01:22:41;5.05;;;3.15;;
27895;SDS011;15241;48.374;10.876;2023-04-25T01:27:40;3.15;;;2.27;;
27895;SDS011;15241;48.374;10.876;2023-04-25T01:32:39;3.72;;;2.45;;
27895;SDS011;15241;48.374;10.876;2023-04-25T01:37:39;5.03;;;2.52;;
27895;SDS011;15241;48.374;10.876;2023-04-25T01:42:40;3.33;;;2.20;;
27895;SDS011;15241;48.374;10.876;2023-04-25T01:47:40;5.12;;;2.60;;
27895;SDS011;15241;48.374;10.876;2023-04-25T01:52:39;3.25;;;2.50;;
27895;SDS011;15241;48.374;10.876;2023-04-25T01:57:38;3.98;;;2.15;;
27895;SDS011;15241;48.374;10.876;2023-04-25T02:02:37;3.80;;;2.60;;
27895;SDS011;15241;48.374;10.876;2023-04-25T02:07:35;7.30;;;2.45;;
27895;SDS011;15241;48.374;10.876;2023-04-25T02:12:35;3.10;;;2.60;;
27895;SDS011;15241;48.374;10.876;2023-04-25T02:17:34;3.17;;;2.20;;
27895;SDS011;15241;48.374;10.876;2023-04-25T02:22:33;3.33;;;2.52;;
27895;SDS011;15241;48.374;10.876;2023-04-25T02:27:40;3.42;;;2.52;;
27895;SDS011;15241;48.374;10.876;2023-04-25T02:32:39;3.20;;;2.55;;
27895;SDS011;15241;48.374;10.876;2023-04-25T02:37:39;7.28;;;3.40;;
27895;SDS011;15241;48.374;10.876;2023-04-25T02:42:38;3.65;;;2.67;;
27895;SDS011;15241;48.374;10.876;2023-04-25T02:47:37;2.67;;;2.10;;
27895;SDS011;15241;48.374;10.876;2023-04-25T02:52:36;3.72;;;2.52;;
27895;SDS011;15241;48.374;10.876;2023-04-25T02:57:35;3.85;;;2.52;;
27895;SDS011;15241;48.374;10.876;2023-04-25T03:02:34;3.80;;;2.17;;
27895;SDS011;15241;48.374;10.876;2023-04-25T03:07:32;5.37;;;2.45;;
27895;SDS011;15241;48.374;10.876;2023-04-25T03:12:31;4.17;;;1.95;;
27895;SDS011;15241;48.374;10.876;2023-04-25T03:17:30;4.30;;;2.83;;
27895;SDS011;15241;48.374;10.876;2023-04-25T03:22:29;5.22;;;2.40;;
27895;SDS011;15241;48.374;10.876;2023-04-25T03:27:29;4.20;;;2.35;;
27895;SDS011;15241;48.374;10.876;2023-04-25T03:32:28;3.55;;;2.45;;
27895;SDS011;15241;48.374;10.876;2023-04-25T03:37:27;5.37;;;3.02;;
27895;SDS011;15241;48.374;10.876;2023-04-25T03:42:26;5.20;;;3.05;;
27895;SDS011;15241;48.374;10.876;2023-04-25T03:47:25;4.72;;;3.05;;
27895;SDS011;15241;48.374;10.876;2023-04-25T03:52:24;3.83;;;2.47;;
27895;SDS011;15241;48.374;10.876;2023-04-25T03:57:23;6.70;;;2.40;;
27895;SDS011;15241;48.374;10.876;2023-04-25T04:02:22;3.58;;;2.52;;
27895;SDS011;15241;48.374;10.876;2023-04-25T04:07:21;4.05;;;2.45;;
27895;SDS011;15241;48.374;10.876;2023-04-25T04:12:20;4.67;;;2.70;;
27895;SDS011;15241;48.374;10.876;2023-04-25T04:17:19;4.50;;;2.30;;
27895;SDS011;15241;48.374;10.876;2023-04-25T04:22:18;3.65;;;2.77;;
27895;SDS011;15241;48.374;10.876;2023-04-25T04:27:17;8.88;;;3.10;;
27895;SDS011;15241;48.374;10.876;2023-04-25T04:32:17;4.20;;;2.87;;
27895;SDS011;15241;48.374;10.876;2023-04-25T04:37:16;4.55;;;2.25;;
27895;SDS011;15241;48.374;10.876;2023-04-25T04:42:15;4.12;;;2.58;;
27895;SDS011;15241;48.374;10.876;2023-04-25T04:47:13;3.83;;;2.35;;
27895;SDS011;15241;48.374;10.876;2023-04-25T04:52:12;2.85;;;2.00;;
27895;SDS011;15241;48.374;10.876;2023-04-25T04:57:11;2.98;;;1.72;;
27895;SDS011;15241;48.374;10.876;2023-04-25T05:02:10;4.47;;;1.95;;
27895;SDS011;15241;48.374;10.876;2023-04-25T05:07:09;3.67;;;1.92;;
27895;SDS011;15241;48.374;10.876;2023-04-25T05:12:08;2.62;;;1.60;;
27895;SDS011;15241;48.374;10.876;2023-04-25T05:17:07;5.90;;;2.20;;
27895;SDS011;15241;48.374;10.876;2023-04-25T05:22:06;6.42;;;1.80;;
27895;SDS011;15241;48.374;10.876;2023-04-25T05:27:05;4.45;;;1.90;;
27895;SDS011;15241;48.374;10.876;2023-04-25T05:32:04;3.00;;;1.65;;
27895;SDS011;15241;48.374;10.876;2023-04-25T05:37:03;2.95;;;2.15;;
27895;SDS011;15241;48.374;10.876;2023-04-25T05:42:02;3.58;;;2.35;;
27895;SDS011;15241;48.374;10.876;2023-04-25T05:47:01;5.75;;;2.80;;
27895;SDS011;15241;48.374;10.876;2023-04-25T05:52:00;7.70;;;2.80;;
27895;SDS011;15241;48.374;10.876;2023-04-25T05:56:59;2.15;;;1.90;;
27895;SDS011;15241;48.374;10.876;2023-04-25T06:01:58;4.40;;;2.02;;
27895;SDS011;15241;48.374;10.876;2023-04-25T06:06:57;3.83;;;2.25;;
27895;SDS011;15241;48.374;10.876;2023-04-25T06:11:56;3.05;;;2.00;;
27895;SDS011;15241;48.374;10.876;2023-04-25T06:16:55;4.75;;;2.20;;
27895;SDS011;15241;48.374;10.876;2023-04-25T06:21:54;3.47;;;2.05;;
27895;SDS011;15241;48.374;10.876;2023-04-25T06:26:53;6.33;;;2.30;;
27895;SDS011;15241;48.374;10.876;2023-04-25T06:31:52;5.20;;;1.65;;
27895;SDS011;15241;48.374;10.876;2023-04-25T06:36:51;2.27;;;1.70;;
27895;SDS011;15241;48.374;10.876;2023-04-25T06:41:49;3.98;;;1.87;;
27895;SDS011;15241;48.374;10.876;2023-04-25T06:46:48;7.37;;;1.98;;
27895;SDS011;15241;48.374;10.876;2023-04-25T06:51:47;4.10;;;2.02;;
27895;SDS011;15241;48.374;10.876;2023-04-25T06:56:46;5.12;;;2.00;;
27895;SDS011;15241;48.374;10.876;2023-04-25T07:01:45;5.70;;;2.30;;
27895;SDS011;15241;48.374;10.876;2023-04-25T07:06:44;3.47;;;1.50;;
27895;SDS011;15241;48.374;10.876;2023-04-25T07:11:43;3.08;;;1.62;;
27895;SDS011;15241;48.374;10.876;2023-04-25T07:16:42;4.72;;;1.80;;
27895;SDS011;15241;48.374;10.876;2023-04-25T07:21:41;5.30;;;2.10;;
27895;SDS011;15241;48.374;10.876;2023-04-25T07:26:40;5.65;;;2.10;;
27895;SDS011;15241;48.374;10.876;2023-04-25T07:31:39;8.28;;;2.25;;
27895;SDS011;15241;48.374;10.876;2023-04-25T07:36:38;2.45;;;1.50;;
27895;SDS011;15241;48.374;10.876;2023-04-25T07:41:36;2.75;;;1.60;;
27895;SDS011;15241;48.374;10.876;2023-04-25T07:46:35;3.50;;;2.08;;
27895;SDS011;15241;48.374;10.876;2023-04-25T07:51:34;15.28;;;3.50;;
27895;SDS011;15241;48.374;10.876;2023-04-25T07:56:33;7.10;;;2.25;;
27895;SDS011;15241;48.374;10.876;2023-04-25T08:01:33;5.17;;;2.05;;
27895;SDS011;15241;48.374;10.876;2023-04-25T08:06:33;10.88;;;2.50;;
27895;SDS011;15241;48.374;10.876;2023-04-25T08:11:32;6.65;;;2.20;;
27895;SDS011;15241;48.374;10.876;2023-04-25T08:16:30;11.57;;;2.42;;
27895;SDS011;15241;48.374;10.876;2023-04-25T08:21:29;3.47;;;1.65;;
27895;SDS011;15241;48.374;10.876;2023-04-25T08:26:28;5.92;;;2.08;;
27895;SDS011;15241;48.374;10.876;2023-04-25T08:31:27;5.72;;;1.95;;
27895;SDS011;15241;48.374;10.876;2023-04-25T08:36:26;5.10;;;1.70;;
27895;SDS011;15241;48.374;10.876;2023-04-25T08:41:25;3.08;;;1.82;;
27895;SDS011;15241;48.374;10.876;2023-04-25T08:46:25;10.58;;;4.22;;
27895;SDS011;15241;48.374;10.876;2023-04-25T08:51:24;5.42;;;2.17;;
27895;SDS011;15241;48.374;10.876;2023-04-25T08:56:24;3.50;;;1.70;;
27895;SDS011;15241;48.374;10.876;2023-04-25T09:01:24;3.83;;;1.60;;
27895;SDS011;15241;48.374;10.876;2023-04-25T09:06:23;2.40;;;1.30;;
27895;SDS011;15241;48.374;10.876;2023-04-25T09:11:22;4.22;;;2.10;;
27895;SDS011;15241;48.374;10.876;2023-04-25T09:16:21;3.40;;;1.60;;
27895;SDS011;15241;48.374;10.876;2023-04-25T09:21:22;4.08;;;1.82;;
27895;SDS011;15241;48.374;10.876;2023-04-25T09:26:21;3.58;;;1.85;;
27895;SDS011;15241;48.374;10.876;2023-04-25T09:31:23;4.20;;;1.70;;
27895;SDS011;15241;48.374;10.876;2023-04-25T09:36:23;6.33;;;2.35;;
27895;SDS011;15241;48.374;10.876;2023-04-25T09:41:32;3.90;;;1.70;;
27895;SDS011;15241;48.374;10.876;2023-04-25T09:46:35;4.37;;;2.30;;
27895;SDS011;15241;48.374;10.876;2023-04-25T09:51:34;3.92;;;1.50;;
27895;SDS011;15241;48.374;10.876;2023-04-25T09:56:35;3.90;;;1.60;;
27895;SDS011;15241;48.374;10.876;2023-04-25T10:01:34;2.85;;;1.55;;
27895;SDS011;15241;48.374;10.876;2023-04-25T10:06:33;3.15;;;1.82;;
27895;SDS011;15241;48.374;10.876;2023-04-25T10:11:33;2.75;;;0.82;;
27895;SDS011;15241;48.374;10.876;2023-04-25T10:16:34;1.10;;;0.98;;
27895;SDS011;15241;48.374;10.876;2023-04-25T10:21:34;2.37;;;1.32;;
27895;SDS011;15241;48.374;10.876;2023-04-25T10:26:37;1.95;;;1.02;;
27895;SDS011;15241;48.374;10.876;2023-04-25T10:31:44;4.12;;;1.55;;
27895;SDS011;15241;48.374;10.876;2023-04-25T10:36:44;14.93;;;4.75;;
27895;SDS011;15241;48.374;10.876;2023-04-25T10:41:48;2.15;;;0.90;;
27895;SDS011;15241;48.374;10.876;2023-04-25T10:46:54;1.60;;;1.00;;
27895;SDS011;15241;48.374;10.876;2023-04-25T10:51:57;5.28;;;1.55;;
27895;SDS011;15241;48.374;10.876;2023-04-25T10:57:08;7.92;;;1.80;;
27895;SDS011;15241;48.374;10.876;2023-04-25T11:02:26;1.42;;;1.25;;
27895;SDS011;15241;48.374;10.876;2023-04-25T11:07:29;1.20;;;0.90;;
27895;SDS011;15241;48.374;10.876;2023-04-25T11:12:29;2.22;;;1.10;;
27895;SDS011;15241;48.374;10.876;2023-04-25T11:17:28;3.50;;;1.35;;
27895;SDS011;15241;48.374;10.876;2023-04-25T11:22:28;2.00;;;1.22;;
27895;SDS011;15241;48.374;10.876;2023-04-25T11:27:26;2.98;;;1.47;;
27895;SDS011;15241;48.374;10.876;2023-04-25T11:32:25;2.67;;;1.70;;
27895;SDS011;15241;48.374;10.876;2023-04-25T11:37:24;2.52;;;1.40;;
27895;SDS011;15241;48.374;10.876;2023-04-25T11:42:23;2.85;;;1.62;;
27895;SDS011;15241;48.374;10.876;2023-04-25T11:47:27;1.67;;;1.10;;
27895;SDS011;15241;48.374;10.876;2023-04-25T11:52:35;3.42;;;1.22;;
27895;SDS011;15241;48.374;10.876;2023-04-25T11:57:36;3.72;;;1.00;;
27895;SDS011;15241;48.374;10.876;2023-04-25T12:02:37;2.25;;;1.52;;
27895;SDS011;15241;48.374;10.876;2023-04-25T12:07:38;1.60;;;1.27;;
27895;SDS011;15241;48.374;10.876;2023-04-25T12:12:37;3.92;;;1.45;;
27895;SDS011;15241;48.374;10.876;2023-04-25T12:17:38;4.95;;;1.40;;
27895;SDS011;15241;48.374;10.876;2023-04-25T12:22:37;4.12;;;2.08;;
27895;SDS011;15241;48.374;10.876;2023-04-25T12:27:38;6.55;;;3.47;;
27895;SDS011;15241;48.374;10.876;2023-04-25T12:32:37;3.37;;;1.40;;
27895;SDS011;15241;48.374;10.876;2023-04-25T12:37:36;3.10;;;1.40;;
27895;SDS011;15241;48.374;10.876;2023-04-25T12:42:35;1.95;;;1.60;;
27895;SDS011;15241;48.374;10.876;2023-04-25T12:47:34;1.17;;;0.75;;
27895;SDS011;15241;48.374;10.876;2023-04-25T12:52:33;0.98;;;0.68;;
27895;SDS011;15241;48.374;10.876;2023-04-25T12:57:32;1.95;;;1.60;;
27895;SDS011;15241;48.374;10.876;2023-04-25T13:02:31;1.30;;;0.40;;
27895;SDS011;15241;48.374;10.876;2023-04-25T13:07:30;1.20;;;0.70;;
27895;SDS011;15241;48.374;10.876;2023-04-25T13:12:29;0.88;;;0.68;;
27895;SDS011;15241;48.374;10.876;2023-04-25T13:17:28;1.27;;;0.90;;
27895;SDS011;15241;48.374;10.876;2023-04-25T13:22:27;3.05;;;0.80;;
27895;SDS011;15241;48.374;10.876;2023-04-25T13:27:26;1.60;;;1.40;;
27895;SDS011;15241;48.374;10.876;2023-04-25T13:32:25;2.72;;;1.30;;
27895;SDS011;15241;48.374;10.876;2023-04-25T13:37:24;2.47;;;1.50;;
27895;SDS011;15241;48.374;10.876;2023-04-25T13:42:23;2.62;;;1.57;;
27895;SDS011;15241;48.374;10.876;2023-04-25T13:47:22;1.57;;;1.27;;
27895;SDS011;15241;48.374;10.876;2023-04-25T13:52:23;2.72;;;1.37;;
27895;SDS011;15241;48.374;10.876;2023-04-25T13:57:22;3.25;;;1.17;;
27895;SDS011;15241;48.374;10.876;2023-04-25T14:02:21;1.67;;;1.40;;
27895;SDS011;15241;48.374;10.876;2023-04-25T14:07:20;1.55;;;1.10;;
27895;SDS011;15241;48.374;10.876;2023-04-25T14:12:19;1.35;;;1.25;;
27895;SDS011;15241;48.374;10.876;2023-04-25T14:17:17;2.45;;;1.50;;
27895;SDS011;15241;48.374;10.876;2023-04-25T14:22:16;1.60;;;1.37;;
27895;SDS011;15241;48.374;10.876;2023-04-25T14:27:15;2.65;;;1.60;;
27895;SDS011;15241;48.374;10.876;2023-04-25T14:32:14;2.35;;;1.35;;
27895;SDS011;15241;48.374;10.876;2023-04-25T14:37:13;2.42;;;2.05;;
27895;SDS011;15241;48.374;10.876;2023-04-25T14:42:18;2.60;;;1.70;;
27895;SDS011;15241;48.374;10.876;2023-04-25T14:47:37;2.05;;;1.52;;
27895;SDS011;15241;48.374;10.876;2023-04-25T14:52:49;2.12;;;1.87;;
27895;SDS011;15241;48.374;10.876;2023-04-25T14:57:49;2.42;;;1.87;;
27895;SDS011;15241;48.374;10.876;2023-04-25T15:02:50;2.95;;;1.95;;
27895;SDS011;15241;48.374;10.876;2023-04-25T15:07:49;3.02;;;1.65;;
27895;SDS011;15241;48.374;10.876;2023-04-25T15:12:48;6.42;;;3.02;;
27895;SDS011;15241;48.374;10.876;2023-04-25T15:17:47;2.58;;;1.75;;
27895;SDS011;15241;48.374;10.876;2023-04-25T15:22:47;2.52;;;2.00;;
27895;SDS011;15241;48.374;10.876;2023-04-25T15:27:46;2.22;;;2.02;;
27895;SDS011;15241;48.374;10.876;2023-04-25T15:32:45;2.50;;;2.30;;
27895;SDS011;15241;48.374;10.876;2023-04-25T15:37:44;2.30;;;2.10;;
27895;SDS011;15241;48.374;10.876;2023-04-25T15:42:44;3.17;;;2.62;;
27895;SDS011;15241;48.374;10.876;2023-04-25T15:47:44;4.10;;;2.50;;
27895;SDS011;15241;48.374;10.876;2023-04-25T15:52:43;3.12;;;2.58;;
27895;SDS011;15241;48.374;10.876;2023-04-25T15:57:42;3.55;;;2.10;;
27895;SDS011;15241;48.374;10.876;2023-04-25T16:02:41;3.12;;;2.22;;
27895;SDS011;15241;48.374;10.876;2023-04-25T16:07:45;2.85;;;2.55;;
27895;SDS011;15241;48.374;10.876;2023-04-25T16:12:44;4.67;;;2.15;;
27895;SDS011;15241;48.374;10.876;2023-04-25T16:17:43;4.92;;;3.15;;
27895;SDS011;15241;48.374;10.876;2023-04-25T16:22:42;3.87;;;2.55;;
27895;SDS011;15241;48.374;10.876;2023-04-25T16:27:41;1.82;;;1.50;;
27895;SDS011;15241;48.374;10.876;2023-04-25T16:32:40;1.95;;;1.40;;
27895;SDS011;15241;48.374;10.876;2023-04-25T16:37:42;1.75;;;1.32;;
27895;SDS011;15241;48.374;10.876;2023-04-25T16:42:41;2.15;;;1.62;;
27895;SDS011;15241;48.374;10.876;2023-04-25T16:47:40;3.72;;;2.22;;
27895;SDS011;15241;48.374;10.876;2023-04-25T16:52:39;3.20;;;2.35;;
27895;SDS011;15241;48.374;10.876;2023-04-25T16:57:38;4.97;;;2.92;;
27895;SDS011;15241;48.374;10.876;2023-04-25T17:02:37;5.12;;;3.27;;
27895;SDS011;15241;48.374;10.876;2023-04-25T17:07:36;7.58;;;3.00;;
27895;SDS011;15241;48.374;10.876;2023-04-25T17:12:35;6.17;;;2.92;;
27895;SDS011;15241;48.374;10.876;2023-04-25T17:17:34;4.33;;;3.25;;
27895;SDS011;15241;48.374;10.876;2023-04-25T17:22:33;3.45;;;3.12;;
27895;SDS011;15241;48.374;10.876;2023-04-25T17:27:33;3.55;;;2.90;;
27895;SDS011;15241;48.374;10.876;2023-04-25T17:32:32;2.72;;;1.95;;
27895;SDS011;15241;48.374;10.876;2023-04-25T17:37:31;3.33;;;2.05;;
27895;SDS011;15241;48.374;10.876;2023-04-25T17:42:32;4.95;;;2.40;;
27895;SDS011;15241;48.374;10.876;2023-04-25T17:47:32;4.35;;;1.85;;
27895;SDS011;15241;48.374;10.876;2023-04-25T17:52:31;4.33;;;2.60;;
27895;SDS011;15241;48.374;10.876;2023-04-25T17:57:30;2.67;;;2.20;;
27895;SDS011;15241;48.374;10.876;2023-04-25T18:02:29;4.92;;;2.47;;
27895;SDS011;15241;48.374;10.876;2023-04-25T18:07:28;4.03;;;2.85;;
27895;SDS011;15241;48.374;10.876;2023-04-25T18:12:27;5.55;;;2.60;;
27895;SDS011;15241;48.374;10.876;2023-04-25T18:17:29;3.77;;;2.27;;
27895;SDS011;15241;48.374;10.876;2023-04-25T18:22:29;7.35;;;5.17;;
27895;SDS011;15241;48.374;10.876;2023-04-25T18:27:28;7.92;;;5.62;;
27895;SDS011;15241;48.374;10.876;2023-04-25T18:32:27;3.83;;;2.10;;
27895;SDS011;15241;48.374;10.876;2023-04-25T18:37:26;2.45;;;1.98;;
27895;SDS011;15241;48.374;10.876;2023-04-25T18:42:25;2.50;;;2.05;;
27895;SDS011;15241;48.374;10.876;2023-04-25T18:47:24;3.70;;;2.27;;
27895;SDS011;15241;48.374;10.876;2023-04-25T18:52:23;2.55;;;2.10;;
27895;SDS011;15241;48.374;10.876;2023-04-25T18:57:22;2.77;;;2.20;;
27895;SDS011;15241;48.374;10.876;2023-04-25T19:02:21;2.37;;;2.17;;
27895;SDS011;15241;48.374;10.876;2023-04-25T19:07:20;3.22;;;2.65;;
27895;SDS011;15241;48.374;10.876;2023-04-25T19:12:19;4.15;;;2.50;;
27895;SDS011;15241;48.374;10.876;2023-04-25T19:17:18;4.97;;;2.95;;
27895;SDS011;15241;48.374;10.876;2023-04-25T19:22:19;4.25;;;2.77;;
27895;SDS011;15241;48.374;10.876;2023-04-25T19:27:17;4.83;;;2.45;;
27895;SDS011;15241;48.374;10.876;2023-04-25T19:32:16;4.12;;;3.17;;
27895;SDS011;15241;48.374;10.876;2023-04-25T19:37:15;5.30;;;3.65;;
27895;SDS011;15241;48.374;10.876;2023-04-25T19:42:16;8.93;;;3.70;;
27895;SDS011;15241;48.374;10.876;2023-04-25T19:47:15;4.08;;;3.60;;
27895;SDS011;15241;48.374;10.876;2023-04-25T19:52:15;4.37;;;3.20;;
27895;SDS011;15241;48.374;10.876;2023-04-25T19:57:14;6.75;;;2.98;;
27895;SDS011;15241;48.374;10.876;2023-04-25T20:02:13;6.97;;;4.08;;
27895;SDS011;15241;48.374;10.876;2023-04-25T20:07:12;6.85;;;4.37;;
27895;SDS011;15241;48.374;10.876;2023-04-25T20:12:10;7.55;;;4.28;;
27895;SDS011;15241;48.374;10.876;2023-04-25T20:17:09;5.80;;;4.15;;
27895;SDS011;15241;48.374;10.876;2023-04-25T20:22:18;8.45;;;4.60;;
27895;SDS011;15241;48.374;10.876;2023-04-25T20:27:17;6.80;;;3.37;;
27895;SDS011;15241;48.374;10.876;2023-04-25T20:32:16;7.75;;;4.08;;
27895;SDS011;15241;48.374;10.876;2023-04-25T20:37:15;8.38;;;4.53;;
27895;SDS011;15241;48.374;10.876;2023-04-25T20:42:14;8.18;;;5.28;;
27895;SDS011;15241;48.374;10.876;2023-04-25T20:47:13;6.22;;;4.50;;
27895;SDS011;15241;48.374;10.876;2023-04-25T20:52:12;5.28;;;3.58;;
27895;SDS011;15241;48.374;10.876;2023-04-25T20:57:12;5.00;;;3.60;;
27895;SDS011;15241;48.374;10.876;2023-04-25T21:02:11;6.22;;;4.25;;
27895;SDS011;15241;48.374;10.876;2023-04-25T21:07:10;4.47;;;3.67;;
27895;SDS011;15241;48.374;10.876;2023-04-25T21:12:10;5.65;;;4.17;;
27895;SDS011;15241;48.374;10.876;2023-04-25T21:17:09;5.72;;;3.52;;
27895;SDS011;15241;48.374;10.876;2023-04-25T21:22:09;6.45;;;4.08;;
27895;SDS011;15241;48.374;10.876;2023-04-25T21:27:08;5.87;;;3.77;;
27895;SDS011;15241;48.374;10.876;2023-04-25T21:32:07;7.72;;;4.62;;
27895;SDS011;15241;48.374;10.876;2023-04-25T21:37:05;4.30;;;3.70;;
27895;SDS011;15241;48.374;10.876;2023-04-25T21:42:04;7.12;;;3.67;;
27895;SDS011;15241;48.374;10.876;2023-04-25T21:47:03;4.60;;;3.58;;
27895;SDS011;15241;48.374;10.876;2023-04-25T21:52:02;4.70;;;3.50;;
27895;SDS011;15241;48.374;10.876;2023-04-25T21:57:02;7.92;;;4.65;;
27895;SDS011;15241;48.374;10.876;2023-04-25T22:02:01;6.47;;;4.00;;
27895;SDS011;15241;48.374;10.876;2023-04-25T22:07:00;7.35;;;4.20;;
27895;SDS011;15241;48.374;10.876;2023-04-25T22:11:59;4.40;;;3.60;;
27895;SDS011;15241;48.374;10.876;2023-04-25T22:16:58;6.03;;;4.33;;
27895;SDS011;15241;48.374;10.876;2023-04-25T22:21:57;6.47;;;4.08;;
27895;SDS011;15241;48.374;10.876;2023-04-25T22:26:56;6.65;;;4.70;;
27895;SDS011;15241;48.374;10.876;2023-04-25T22:31:55;7.42;;;5.08;;
27895;SDS011;15241;48.374;10.876;2023-04-25T22:36:53;6.92;;;4.75;;
27895;SDS011;15241;48.374;10.876;2023-04-25T22:41:52;7.53;;;4.45;;
27895;SDS011;15241;48.374;10.876;2023-04-25T22:46:51;7.53;;;4.65;;
27895;SDS011;15241;48.374;10.876;2023-04-25T22:51:50;9.25;;;4.78;;
27895;SDS011;15241;48.374;10.876;2023-04-25T22:56:49;8.68;;;5.33;;
27895;SDS011;15241;48.374;10.876;2023-04-25T23:01:48;8.45;;;4.62;;
27895;SDS011;15241;48.374;10.876;2023-04-25T23:06:56;7.62;;;4.62;;
27895;SDS011;15241;48.374;10.876;2023-04-25T23:11:55;10.05;;;5.37;;
27895;SDS011;15241;48.374;10.876;2023-04-25T23:16:54;7.40;;;5.37;;
27895;SDS011;15241;48.374;10.876;2023-04-25T23:21:53;9.35;;;5.85;;
27895;SDS011;15241;48.374;10.876;2023-04-25T23:26:52;8.60;;;5.12;;
27895;SDS011;15241;48.374;10.876;2023-04-25T23:31:51;9.90;;;5.45;;
27895;SDS011;15241;48.374;10.876;2023-04-25T23:36:50;10.13;;;5.55;;
27895;SDS011;15241;48.374;10.876;2023-04-25T23:41:49;8.63;;;5.92;;
27895;SDS011;15241;48.374;10.876;2023-04-25T23:46:48;8.93;;;5.12;;
27895;SDS011;15241;48.374;10.876;2023-04-25T23:51:47;8.88;;;5.45;;
27895;SDS011;15241;48.374;10.876;2023-04-25T23:56:46;9.80;;;5.37;;
